createdAt,value
2022-08-07T00:02:35.609Z,71.97
2022-08-07T00:04:15.533Z,72.00
2022-08-07T00:06:51.251Z,71.92
2022-08-07T00:09:22.810Z,71.81
2022-08-07T00:11:56.166Z,72.72
2022-08-07T00:14:31.035Z,71.94
2022-08-07T00:17:00.271Z,72.42
2022-08-07T00:19:59.594Z,73.27
2022-08-07T00:22:34.535Z,73.14
2022-08-07T00:25:04.805Z,72.58
2022-08-07T00:27:35.912Z,72.69
2022-08-07T00:30:26.974Z,72.98
2022-08-07T00:32:57.079Z,74.00
2022-08-07T00:35:24.926Z,74.36
2022-08-07T00:37:53.014Z,73.73
2022-08-07T00:40:36.157Z,73.50
2022-08-07T00:43:04.788Z,73.88
2022-08-07T00:45:39.146Z,74.17
2022-08-07T00:48:09.493Z,73.99
2022-08-07T00:50:46.673Z,73.91
2022-08-07T00:53:20.104Z,74.67
2022-08-07T00:56:03.258Z,74.83
2022-08-07T00:58:32.411Z,74.79
2022-08-07T05:02:04.613Z,85.51
2022-08-07T05:04:43.900Z,85.43
2022-08-07T05:07:21.137Z,85.06
2022-08-07T05:09:58.930Z,84.22
2022-08-07T05:12:35.911Z,84.78
2022-08-07T05:15:23.298Z,84.67
2022-08-07T05:18:08.757Z,85.00
2022-08-07T05:20:42.856Z,84.39
2022-08-07T05:23:15.628Z,83.95
2022-08-07T05:26:11.579Z,84.07
2022-08-07T05:28:35.872Z,84.70
2022-08-07T05:31:04.724Z,84.88
2022-08-07T05:33:37.037Z,84.26
2022-08-07T05:36:07.970Z,85.70
2022-08-07T05:39:01.264Z,85.26
2022-08-07T05:42:00.667Z,85.18
2022-08-07T05:44:29.319Z,85.63
2022-08-07T05:46:58.372Z,86.01
2022-08-07T05:49:41.097Z,84.81
2022-08-07T05:52:11.666Z,85.69
2022-08-07T05:54:53.725Z,85.21
2022-08-07T05:57:26.698Z,85.01
2022-08-07T06:00:00.172Z,84.87
2022-08-07T06:02:32.402Z,85.27
2022-08-07T06:05:05.841Z,85.81
2022-08-07T06:08:09.276Z,84.55
2022-08-07T06:10:22.810Z,84.91
2022-08-07T06:12:50.880Z,84.37
2022-08-07T06:15:20.324Z,83.43
2022-08-07T06:17:53.696Z,83.10
2022-08-07T06:20:49.364Z,83.48
2022-08-07T06:23:24.992Z,83.51
2022-08-07T06:26:02.208Z,83.42
2022-08-07T06:28:29.854Z,83.47
2022-08-07T06:30:58.147Z,83.13
2022-08-07T06:33:27.101Z,82.95
2022-08-07T06:36:13.488Z,82.67
2022-08-07T06:38:51.656Z,82.34
2022-08-07T06:42:01.567Z,81.53
2022-08-07T06:44:24.349Z,80.73
2022-08-07T06:46:53.223Z,80.42
2022-08-07T06:49:27.985Z,79.95
2022-08-07T06:52:02.905Z,79.08
2022-08-07T06:55:34.102Z,78.39
2022-08-07T06:57:39.847Z,78.11
2022-08-07T07:00:18.245Z,78.05
2022-08-07T07:02:53.657Z,78.39
2022-08-07T07:06:03.041Z,77.18
2022-08-07T07:08:18.866Z,76.15
2022-08-07T07:10:56.462Z,76.26
2022-08-07T07:13:43.673Z,75.84
2022-08-07T07:16:22.941Z,74.78
2022-08-07T07:19:00.312Z,72.88
2022-08-07T07:22:05.088Z,73.18
2022-08-07T07:24:32.948Z,71.25
2022-08-07T07:27:04.378Z,70.36
2022-08-07T07:29:56.933Z,70.54
2022-08-07T07:32:26.490Z,72.29
2022-08-07T07:35:00.139Z,70.59
2022-08-07T07:37:47.279Z,70.30
2022-08-07T07:40:21.989Z,68.29
2022-08-07T07:42:56.242Z,68.10
2022-08-07T07:46:38.264Z,67.24
2022-08-07T07:48:35.056Z,67.84
2022-08-07T07:51:08.046Z,68.09
2022-08-07T07:53:51.830Z,66.41
2022-08-07T07:56:30.071Z,66.94
2022-08-07T07:59:01.614Z,65.28
2022-08-07T08:02:03.991Z,67.83
2022-08-07T08:04:25.796Z,64.20
2022-08-07T08:06:54.752Z,63.04
2022-08-07T08:09:29.263Z,64.50
2022-08-07T08:12:03.845Z,61.54
2022-08-07T08:14:34.395Z,61.07
2022-08-07T08:17:55.600Z,61.49
2022-08-07T08:20:22.422Z,62.25
2022-08-07T08:23:08.123Z,63.42
2022-08-07T08:25:56.747Z,61.48
2022-08-07T08:28:37.681Z,59.88
2022-08-07T08:31:15.733Z,60.60
2022-08-07T08:33:49.295Z,60.19
2022-08-07T08:36:25.700Z,60.66
2022-08-07T08:39:02.797Z,59.03
2022-08-07T08:41:57.351Z,60.44
2022-08-07T08:44:44.848Z,59.68
2022-08-07T08:47:22.776Z,58.93
2022-08-07T08:50:05.116Z,59.60
2022-08-07T08:52:40.822Z,57.96
2022-08-07T08:55:54.762Z,57.29
2022-08-07T08:58:28.728Z,57.17
2022-08-07T09:01:16.138Z,57.53
2022-08-07T09:03:56.769Z,56.28
2022-08-07T09:06:40.309Z,54.76
2022-08-07T09:09:23.728Z,53.26
2022-08-07T09:12:20.166Z,52.12
2022-08-07T09:16:23.067Z,51.46
2022-08-07T09:18:22.499Z,51.22
2022-08-07T09:21:01.070Z,52.35
2022-08-07T09:24:32.504Z,51.17
2022-08-07T09:26:34.483Z,51.44
2022-08-07T09:30:00.608Z,51.95
2022-08-07T09:32:16.155Z,52.21
2022-08-07T09:34:55.954Z,52.55
2022-08-07T09:37:53.388Z,53.36
2022-08-07T09:40:27.770Z,54.31
2022-08-07T09:43:01.581Z,51.95
2022-08-07T09:47:52.478Z,51.93
2022-08-07T09:48:55.903Z,49.58
2022-08-07T09:52:16.385Z,48.66
2022-08-07T09:54:35.711Z,45.57
2022-08-07T09:57:32.393Z,44.73
2022-08-07T10:00:09.261Z,42.34
2022-08-07T10:03:07.913Z,41.88
2022-08-07T10:06:00.015Z,42.66
2022-08-07T10:08:49.635Z,43.22
2022-08-07T10:12:00.076Z,43.62
2022-08-07T10:14:54.335Z,44.41
2022-08-07T10:18:02.793Z,45.24
2022-08-07T10:20:41.101Z,44.49
2022-08-07T10:24:06.701Z,42.69
2022-08-07T10:26:44.175Z,43.25
2022-08-07T10:29:32.044Z,43.47
2022-08-07T10:32:51.673Z,41.57
2022-08-07T10:35:16.632Z,41.01
2022-08-07T10:38:15.579Z,41.09
2022-08-07T10:40:56.949Z,41.72
2022-08-07T10:43:34.243Z,41.96
2022-08-07T10:46:10.328Z,42.50
2022-08-07T10:48:48.488Z,42.48
2022-08-07T10:51:39.283Z,41.38
2022-08-07T10:54:17.388Z,42.07
2022-08-07T10:56:57.253Z,41.41
2022-08-07T10:59:37.228Z,41.98
2022-08-07T11:02:32.879Z,41.67
2022-08-07T11:05:19.877Z,42.05
2022-08-07T11:08:00.792Z,41.88
2022-08-07T11:10:37.283Z,42.84
2022-08-07T11:14:42.722Z,42.03
2022-08-07T11:16:07.177Z,42.83
2022-08-07T11:18:40.302Z,42.98
2022-08-07T11:21:17.621Z,42.72
2022-08-07T11:23:53.619Z,41.97
2022-08-07T11:26:27.851Z,42.26
2022-08-07T11:29:02.594Z,41.69
2022-08-07T11:31:40.084Z,42.01
2022-08-07T11:34:18.775Z,41.90
2022-08-07T11:37:00.374Z,41.72
2022-08-07T11:40:00.397Z,41.58
2022-08-07T11:42:39.889Z,41.70
2022-08-07T11:45:20.275Z,41.40
2022-08-07T11:48:03.406Z,41.26
2022-08-07T11:50:57.798Z,40.86
2022-08-07T11:53:37.963Z,41.78
2022-08-07T11:56:28.992Z,41.09
2022-08-07T11:59:22.082Z,41.19
2022-08-07T12:02:17.742Z,40.87
2022-08-07T12:05:15.442Z,40.56
2022-08-07T12:08:04.033Z,40.98
2022-08-07T12:10:41.836Z,41.14
2022-08-07T12:13:18.607Z,40.85
2022-08-07T12:16:09.145Z,40.82
2022-08-07T12:18:45.412Z,40.05
2022-08-07T12:21:55.442Z,37.35
2022-08-07T12:24:37.813Z,37.18
2022-08-07T12:27:13.264Z,37.93
2022-08-07T12:29:52.838Z,37.49
2022-08-07T12:32:29.677Z,37.85
2022-08-07T12:35:00.981Z,38.70
2022-08-07T12:38:09.178Z,39.26
2022-08-07T12:40:46.356Z,38.50
2022-08-07T12:43:12.312Z,38.13
2022-08-07T12:46:26.449Z,39.36
2022-08-07T12:49:09.834Z,39.06
2022-08-07T12:51:51.373Z,39.73
2022-08-07T12:54:38.806Z,39.88
2022-08-07T12:57:10.007Z,39.77
2022-08-07T12:59:54.516Z,39.92
2022-08-07T13:02:40.962Z,39.87
2022-08-07T13:06:03.572Z,39.29
2022-08-07T13:08:28.305Z,39.78
2022-08-07T13:11:09.824Z,40.05
2022-08-07T13:13:57.471Z,39.10
2022-08-07T13:16:36.742Z,38.79
2022-08-07T13:19:34.992Z,38.83
2022-08-07T13:22:27.911Z,39.16
2022-08-07T13:25:02.477Z,37.73
2022-08-07T13:28:11.617Z,35.30
2022-08-07T13:30:41.040Z,36.73
2022-08-07T13:34:32.730Z,34.84
2022-08-07T13:36:18.085Z,34.31
2022-08-07T13:38:54.454Z,34.65
2022-08-07T13:41:33.134Z,33.97
2022-08-07T13:44:05.162Z,33.51
2022-08-07T13:46:49.706Z,33.76
2022-08-07T13:50:34.654Z,32.97
2022-08-07T13:52:31.484Z,32.47
2022-08-07T13:54:58.880Z,32.23
2022-08-07T13:57:38.152Z,32.34
2022-08-07T14:00:13.359Z,32.72
2022-08-07T14:02:57.221Z,32.44
2022-08-07T14:05:28.941Z,32.51
2022-08-07T14:08:08.024Z,31.98
2022-08-07T14:10:41.731Z,32.06
2022-08-07T14:13:16.291Z,33.00
2022-08-07T14:15:51.779Z,31.58
2022-08-07T14:18:28.936Z,31.94
2022-08-07T14:21:07.893Z,32.95
2022-08-07T14:24:00.170Z,31.74
2022-08-07T14:26:31.958Z,31.29
2022-08-07T14:29:08.466Z,31.50
2022-08-07T14:31:42.856Z,31.42
2022-08-07T14:34:20.025Z,31.67
2022-08-07T14:36:56.303Z,32.38
2022-08-07T14:40:14.616Z,32.23
2022-08-07T14:42:20.947Z,32.17
2022-08-07T14:44:54.427Z,31.67
2022-08-07T14:47:33.920Z,30.84
2022-08-07T14:50:06.983Z,31.45
2022-08-07T14:52:40.041Z,30.93
2022-08-07T14:55:10.974Z,31.25
2022-08-07T15:00:38.548Z,31.26
2022-08-07T15:06:03.964Z,29.69
2022-08-07T15:08:50.345Z,30.66
2022-08-07T15:11:53.999Z,30.40
2022-08-07T15:14:17.505Z,30.59
2022-08-07T15:16:55.234Z,31.60
2022-08-07T15:20:16.174Z,31.71
2022-08-07T15:22:29.228Z,31.32
2022-08-07T15:25:17.821Z,31.40
2022-08-07T15:28:30.970Z,31.48
2022-08-07T15:31:04.531Z,31.71
2022-08-07T15:33:33.433Z,31.79
2022-08-07T15:36:05.693Z,31.82
2022-08-07T15:42:43.573Z,32.03
2022-08-07T15:44:19.630Z,32.40
2022-08-07T15:52:38.939Z,33.06
2022-08-07T15:55:11.469Z,32.57
2022-08-07T15:57:48.804Z,32.78
2022-08-07T16:00:31.620Z,33.15
2022-08-07T16:03:05.085Z,33.31
2022-08-07T16:05:34.141Z,33.28
2022-08-07T16:08:32.990Z,33.56
2022-08-07T16:11:03.356Z,33.72
2022-08-07T16:14:00.008Z,33.64
2022-08-07T16:16:47.697Z,33.71
2022-08-07T16:19:58.480Z,34.25
2022-08-07T16:22:55.132Z,34.33
2022-08-07T16:25:55.058Z,34.47
2022-08-07T16:30:08.383Z,34.73
2022-08-07T16:31:51.410Z,35.08
2022-08-07T16:34:34.208Z,35.14
2022-08-07T16:38:04.400Z,34.95
2022-08-07T16:41:01.737Z,34.82
2022-08-07T16:44:05.789Z,35.28
2022-08-07T16:47:05.653Z,34.81
2022-08-07T16:50:20.672Z,34.20
2022-08-07T16:54:02.343Z,34.37
2022-08-07T16:56:14.290Z,35.07
2022-08-07T16:59:10.591Z,34.88
2022-08-07T17:01:51.941Z,35.31
2022-08-07T17:04:35.331Z,34.93
2022-08-07T17:07:13.614Z,34.50
2022-08-07T17:10:06.533Z,34.46
2022-08-07T17:12:48.312Z,35.08
2022-08-07T17:15:43.778Z,35.16
2022-08-07T17:18:18.858Z,35.17
2022-08-07T17:20:46.938Z,35.37
2022-08-07T17:23:34.733Z,35.40
2022-08-07T17:26:23.981Z,35.29
2022-08-07T17:29:08.128Z,35.11
2022-08-07T17:32:02.741Z,35.72
2022-08-07T17:35:02.688Z,35.42
2022-08-07T17:38:09.365Z,34.77
2022-08-07T17:40:30.603Z,35.19
2022-08-07T17:43:15.115Z,35.67
2022-08-07T17:45:56.332Z,35.47
2022-08-07T17:48:30.620Z,35.68
2022-08-07T17:51:03.638Z,35.53
2022-08-07T17:54:00.672Z,35.57
2022-08-07T17:56:32.691Z,36.55
2022-08-07T17:59:09.724Z,44.69
2022-08-07T18:01:48.587Z,38.13
2022-08-07T18:04:30.778Z,37.65
2022-08-07T18:07:22.636Z,36.92
2022-08-07T18:10:06.289Z,37.38
2022-08-07T18:12:51.624Z,37.08
2022-08-07T18:15:32.834Z,37.02
2022-08-07T18:18:47.450Z,37.10
2022-08-07T18:21:38.269Z,37.33
2022-08-07T18:24:00.461Z,37.22
2022-08-07T18:26:49.249Z,36.95
2022-08-07T18:30:06.695Z,36.82
2022-08-07T18:32:25.568Z,36.76
2022-08-07T18:35:10.351Z,36.93
2022-08-07T18:38:58.250Z,36.69
2022-08-07T18:41:08.088Z,36.73
2022-08-07T18:43:57.861Z,37.15
2022-08-07T18:46:33.250Z,36.56
2022-08-07T18:50:35.199Z,37.10
2022-08-07T18:52:33.776Z,37.41
2022-08-07T18:55:40.271Z,37.27
2022-08-07T18:58:14.334Z,37.93
2022-08-07T19:00:56.607Z,37.92
2022-08-07T19:03:37.578Z,38.16
2022-08-07T19:06:09.924Z,38.23
2022-08-07T19:09:57.128Z,38.93
2022-08-07T19:12:08.785Z,39.07
2022-08-07T19:14:59.242Z,39.23
2022-08-07T19:18:04.021Z,39.17
2022-08-07T19:20:33.719Z,39.52
2022-08-07T19:23:18.254Z,39.53
2022-08-07T19:26:24.870Z,39.73
2022-08-07T19:30:57.064Z,40.41
2022-08-07T19:32:11.414Z,40.45
2022-08-07T19:34:34.280Z,40.57
2022-08-07T19:37:09.945Z,40.96
2022-08-07T19:39:56.355Z,41.28
2022-08-07T19:42:30.250Z,41.16
2022-08-07T19:45:08.272Z,41.57
2022-08-07T19:47:41.903Z,41.46
2022-08-07T19:50:43.173Z,41.36
2022-08-07T19:53:00.974Z,41.22
2022-08-07T19:55:57.332Z,41.26
2022-08-07T19:58:28.400Z,41.71
2022-08-07T20:00:59.758Z,41.99
2022-08-07T20:03:35.078Z,42.00
2022-08-07T20:06:06.334Z,42.35
2022-08-07T20:08:48.852Z,42.52
2022-08-07T20:11:23.303Z,42.55
2022-08-07T20:14:20.871Z,42.74
2022-08-07T20:16:54.483Z,42.80
2022-08-07T20:19:25.113Z,43.14
2022-08-07T20:21:57.883Z,43.61
2022-08-07T20:24:31.445Z,44.34
2022-08-07T20:27:02.771Z,44.24
2022-08-07T20:29:48.827Z,44.38
2022-08-07T20:32:25.164Z,44.88
2022-08-07T20:34:56.921Z,44.96
2022-08-07T20:37:32.117Z,45.22
2022-08-07T20:40:31.241Z,45.78
2022-08-07T20:42:57.693Z,45.83
2022-08-07T20:45:33.126Z,46.09
2022-08-07T20:48:25.875Z,46.58
2022-08-07T20:50:59.468Z,47.10
2022-08-07T20:54:02.937Z,46.96
2022-08-07T20:56:20.309Z,47.23
2022-08-07T20:58:58.662Z,47.48
2022-08-07T21:01:45.337Z,47.49
2022-08-07T21:04:22.877Z,47.86
2022-08-07T21:06:56.713Z,48.30
2022-08-07T21:09:51.840Z,48.29
2022-08-07T21:12:26.038Z,48.43
2022-08-07T21:14:59.503Z,48.66
2022-08-07T21:18:03.591Z,48.49
2022-08-07T21:20:29.701Z,48.77
2022-08-07T21:23:07.987Z,49.17
2022-08-07T21:25:56.232Z,49.25
2022-08-07T21:28:50.431Z,49.51
2022-08-07T21:31:49.802Z,49.89
2022-08-07T21:34:22.184Z,50.04
2022-08-07T21:37:03.433Z,49.93
2022-08-07T21:39:46.324Z,50.20
2022-08-07T21:42:42.303Z,50.22
2022-08-07T21:46:03.756Z,50.66
2022-08-07T21:48:28.544Z,50.38
2022-08-07T21:51:05.916Z,50.53
2022-08-07T21:53:46.373Z,51.62
2022-08-07T21:56:39.633Z,51.00
2022-08-07T21:59:17.524Z,51.28
2022-08-07T22:02:11.024Z,51.54
2022-08-07T22:04:52.611Z,51.84
2022-08-07T22:07:31.695Z,51.63
2022-08-07T22:10:20.015Z,51.86
2022-08-07T22:12:53.513Z,51.69
2022-08-07T22:16:44.357Z,52.08
2022-08-07T22:18:21.446Z,52.21
2022-08-07T22:20:54.809Z,52.67
2022-08-07T22:23:31.721Z,52.72
2022-08-07T22:26:06.121Z,52.69
2022-08-07T22:28:41.258Z,53.02
2022-08-07T22:31:56.407Z,53.39
2022-08-07T22:34:18.517Z,53.62
2022-08-07T22:37:09.296Z,53.52
2022-08-07T22:39:52.910Z,53.46
2022-08-07T22:42:26.143Z,53.82
2022-08-07T22:45:02.307Z,54.00
2022-08-07T22:48:00.871Z,55.09
2022-08-07T22:50:43.969Z,54.74
2022-08-07T22:54:05.519Z,55.16
2022-08-07T22:56:33.241Z,55.13
2022-08-07T22:59:26.819Z,55.28
